createdAt,value
2023-10-30T00:01:04.680Z,11.40
2023-10-30T00:06:08.249Z,9.70
2023-10-30T00:11:10.413Z,10.40
2023-10-30T00:16:12.788Z,11.20
2023-10-30T00:21:15.308Z,9.10
2023-10-30T00:26:17.809Z,10.90
2023-10-30T00:31:21.445Z,9.60
2023-10-30T00:36:23.996Z,10.80
2023-10-30T00:41:26.936Z,9.40
2023-10-30T00:47:04.359Z,9.80
2023-10-30T00:52:06.741Z,10.20
2023-10-30T00:57:08.846Z,8.70
2023-10-30T01:02:10.825Z,8.20
2023-10-30T01:07:13.243Z,9.40
2023-10-30T01:13:10.084Z,8.70
2023-10-30T01:18:13.206Z,9.10
2023-10-30T01:23:18.380Z,9.10
2023-10-30T01:28:20.505Z,8.00
2023-10-30T01:33:24.531Z,7.00
2023-10-30T01:38:26.985Z,7.60
2023-10-30T01:43:33.712Z,6.90
2023-10-30T01:48:36.648Z,6.80
2023-10-30T01:53:39.742Z,8.20
2023-10-30T01:58:42.326Z,7.60
2023-10-30T02:03:44.648Z,6.60
2023-10-30T02:08:46.888Z,7.30
2023-10-30T02:13:57.464Z,7.90
2023-10-30T02:18:59.568Z,7.60
2023-10-30T02:24:12.337Z,7.30
2023-10-30T02:29:34.896Z,7.20
2023-10-30T02:34:36.898Z,6.20
2023-10-30T02:39:39.158Z,7.20
2023-10-30T02:44:42.039Z,7.30
2023-10-30T02:49:44.844Z,8.10
2023-10-30T02:54:47.145Z,7.90
2023-10-30T02:59:49.456Z,6.90
2023-10-30T03:04:52.133Z,8.70
2023-10-30T03:09:54.296Z,7.00
2023-10-30T03:14:56.426Z,7.60
2023-10-30T03:19:59.824Z,7.10
2023-10-30T03:25:02.090Z,7.60
2023-10-30T03:30:05.040Z,7.70
2023-10-30T03:35:08.599Z,6.60
2023-10-30T03:40:11.409Z,7.70
2023-10-30T03:45:13.834Z,8.30
2023-10-30T03:50:18.180Z,7.30
2023-10-30T03:55:20.351Z,10.00
2023-10-30T04:00:22.432Z,10.50
2023-10-30T04:05:24.627Z,9.70
2023-10-30T04:10:27.145Z,9.90
2023-10-30T04:15:29.430Z,11.00
2023-10-30T04:20:31.742Z,10.70
2023-10-30T04:25:33.959Z,10.30
2023-10-30T04:30:36.921Z,14.00
2023-10-30T04:35:39.594Z,9.10
2023-10-30T04:40:42.252Z,8.20
2023-10-30T04:45:44.395Z,8.50
2023-10-30T04:50:46.760Z,9.30
2023-10-30T04:55:52.811Z,10.10
2023-10-30T05:00:55.072Z,9.40
2023-10-30T05:06:17.533Z,8.90
2023-10-30T05:11:19.917Z,11.20
2023-10-30T05:16:22.735Z,9.90
2023-10-30T05:21:25.122Z,10.70
2023-10-30T05:26:27.800Z,9.10
2023-10-30T05:31:30.158Z,8.90
2023-10-30T05:36:32.633Z,7.40
2023-10-30T05:41:35.108Z,7.10
2023-10-30T05:46:37.501Z,8.20
2023-10-30T05:51:39.754Z,9.30
2023-10-30T05:56:41.928Z,8.20
2023-10-30T06:01:44.520Z,7.60
2023-10-30T06:06:47.540Z,7.20
2023-10-30T06:11:50.289Z,7.10
2023-10-30T06:16:52.327Z,6.40
2023-10-30T06:21:55.040Z,6.50
2023-10-30T06:26:57.351Z,6.20
2023-10-30T06:31:59.907Z,5.20
2023-10-30T06:37:03.097Z,5.20
2023-10-30T06:42:06.526Z,5.60
2023-10-30T06:47:08.591Z,5.60
2023-10-30T06:52:11.115Z,5.10
2023-10-30T06:57:13.528Z,5.10
2023-10-30T07:02:15.728Z,5.90
2023-10-30T07:07:17.952Z,5.50
2023-10-30T07:12:20.232Z,4.80
2023-10-30T07:17:22.462Z,4.80
2023-10-30T07:22:25.299Z,5.50
2023-10-30T07:27:27.766Z,4.90
2023-10-30T07:32:30.396Z,4.70
2023-10-30T07:37:34.809Z,5.00
2023-10-30T07:42:38.993Z,5.10
2023-10-30T07:47:44.226Z,4.90
2023-10-30T07:52:47.300Z,5.00
2023-10-30T07:57:49.592Z,4.30
2023-10-30T08:02:52.115Z,4.60
2023-10-30T08:07:54.463Z,4.90
2023-10-30T08:12:56.899Z,4.30
2023-10-30T08:17:59.195Z,5.10
2023-10-30T08:23:01.757Z,4.00
2023-10-30T08:28:04.257Z,4.50
2023-10-30T08:33:06.558Z,4.50
2023-10-30T08:38:08.769Z,5.40
2023-10-30T08:43:10.992Z,5.90
2023-10-30T08:48:19.426Z,4.60
2023-10-30T08:53:22.672Z,3.80
2023-10-30T08:58:24.932Z,3.70
2023-10-30T09:03:27.109Z,3.40
2023-10-30T09:08:29.264Z,4.50
2023-10-30T09:13:32.409Z,4.90
2023-10-30T09:18:34.511Z,5.80
2023-10-30T09:23:36.691Z,5.00
2023-10-30T09:28:39.074Z,4.60
2023-10-30T09:33:41.392Z,5.70
2023-10-30T09:38:43.795Z,4.70
2023-10-30T09:43:53.305Z,4.50
2023-10-30T09:48:57.640Z,4.80
2023-10-30T09:54:01.592Z,4.50
2023-10-30T09:59:04.372Z,4.20
2023-10-30T10:04:06.854Z,3.70
2023-10-30T10:09:09.094Z,4.80
2023-10-30T10:14:12.954Z,3.40
2023-10-30T10:19:22.296Z,3.40
2023-10-30T10:24:29.629Z,4.10
2023-10-30T10:29:33.554Z,3.20
2023-10-30T10:34:35.972Z,3.40
2023-10-30T10:39:58.549Z,4.70
2023-10-30T10:45:00.914Z,5.00
2023-10-30T10:50:04.538Z,3.80
2023-10-30T10:55:07.389Z,4.00
2023-10-30T11:00:13.523Z,4.90
2023-10-30T11:05:17.020Z,4.70
2023-10-30T11:10:26.076Z,4.40
2023-10-30T11:15:34.194Z,4.80
2023-10-30T11:20:36.213Z,3.90
2023-10-30T11:25:40.333Z,4.80
2023-10-30T11:30:44.364Z,4.50
2023-10-30T11:35:47.930Z,3.40
2023-10-30T11:41:05.821Z,5.00
2023-10-30T11:46:08.042Z,5.80
2023-10-30T11:51:10.593Z,3.70
2023-10-30T11:56:14.829Z,3.10
2023-10-30T12:01:18.073Z,3.90
2023-10-30T12:06:20.418Z,4.40
2023-10-30T12:11:23.953Z,4.50
2023-10-30T12:16:27.657Z,3.20
2023-10-30T12:21:31.510Z,4.10
2023-10-30T12:26:40.607Z,3.90
2023-10-30T12:31:43.208Z,2.80
2023-10-30T12:36:45.982Z,3.40
2023-10-30T12:41:55.379Z,2.90
2023-10-30T12:46:57.778Z,3.50
2023-10-30T12:52:00.168Z,3.40
2023-10-30T12:57:02.544Z,3.10
2023-10-30T13:02:07.178Z,4.10
2023-10-30T13:07:09.635Z,4.30
2023-10-30T13:12:11.731Z,4.20
2023-10-30T13:17:14.048Z,3.50
2023-10-30T13:22:16.350Z,3.80
2023-10-30T13:27:18.735Z,4.20
2023-10-30T13:32:21.411Z,4.20
2023-10-30T13:37:23.571Z,4.50
2023-10-30T13:42:25.605Z,5.60
2023-10-30T13:47:27.764Z,5.80
2023-10-30T13:52:29.802Z,5.00
2023-10-30T13:57:32.111Z,4.60
2023-10-30T14:02:34.246Z,4.80
2023-10-30T14:07:37.082Z,4.70
2023-10-30T14:12:39.178Z,5.80
2023-10-30T14:17:41.390Z,5.10
2023-10-30T14:22:43.434Z,5.20
2023-10-30T14:27:45.695Z,4.30
2023-10-30T14:32:48.320Z,6.50
2023-10-30T14:37:50.432Z,5.00
2023-10-30T14:42:52.752Z,5.80
2023-10-30T14:47:55.417Z,6.90
2023-10-30T14:52:57.683Z,6.40
2023-10-30T14:58:00.049Z,6.40
2023-10-30T15:03:04.883Z,4.50
2023-10-30T15:08:06.931Z,4.90
2023-10-30T15:13:09.583Z,4.00
2023-10-30T15:18:11.897Z,4.60
2023-10-30T15:23:14.332Z,6.00
2023-10-30T15:28:16.404Z,6.10
2023-10-30T15:33:19.011Z,10.60
2023-10-30T15:38:21.814Z,8.30
2023-10-30T15:43:23.885Z,7.20
2023-10-30T15:48:25.957Z,6.60
2023-10-30T16:03:40.367Z,6.80
2023-10-30T16:13:48.521Z,6.10
2023-10-30T16:19:15.141Z,7.00
2023-10-30T16:24:16.236Z,6.60
2023-10-30T16:29:18.493Z,8.60
2023-10-30T16:34:20.620Z,8.20
2023-10-30T16:39:22.728Z,8.40
2023-10-30T16:44:25.284Z,10.40
2023-10-30T16:49:27.831Z,9.90
2023-10-30T16:54:29.970Z,8.00
2023-10-30T16:59:32.301Z,9.70
2023-10-30T17:04:34.574Z,10.30
2023-10-30T17:09:36.660Z,11.40
2023-10-30T17:14:39.179Z,10.30
2023-10-30T17:19:41.682Z,13.70
2023-10-30T17:24:43.685Z,12.00
2023-10-30T17:29:47.591Z,15.10
2023-10-30T17:34:51.019Z,13.80
2023-10-30T17:39:55.525Z,9.10
2023-10-30T17:45:04.317Z,8.80
2023-10-30T17:55:31.600Z,9.20
2023-10-30T18:00:33.817Z,12.40
2023-10-30T18:05:35.912Z,11.10
2023-10-30T18:10:38.230Z,10.10
2023-10-30T18:15:40.784Z,8.40
2023-10-30T18:20:44.630Z,14.40
2023-10-30T18:25:46.785Z,11.70
2023-10-30T18:30:51.120Z,10.90
2023-10-30T18:35:53.333Z,10.90
2023-10-30T18:41:02.451Z,11.80
2023-10-30T18:46:04.996Z,14.10
2023-10-30T18:51:07.206Z,13.50
2023-10-30T18:56:14.682Z,11.30
2023-10-30T19:01:17.438Z,10.90
2023-10-30T19:06:19.852Z,9.20
2023-10-30T19:11:22.308Z,10.00
2023-10-30T19:16:24.591Z,9.30
2023-10-30T19:21:27.061Z,9.30
2023-10-30T19:26:29.607Z,13.60
2023-10-30T19:31:32.003Z,14.10
2023-10-30T19:36:34.757Z,15.40
2023-10-30T19:41:37.242Z,16.00
2023-10-30T19:46:41.371Z,15.70
2023-10-30T19:51:52.399Z,15.90
2023-10-30T19:56:59.157Z,16.40
2023-10-30T20:02:01.876Z,18.80
2023-10-30T20:07:04.815Z,20.20
2023-10-30T20:12:07.371Z,20.80
2023-10-30T20:17:11.039Z,21.10
2023-10-30T20:22:13.260Z,21.10
2023-10-30T20:27:15.712Z,20.30
2023-10-30T20:32:19.891Z,21.60
2023-10-30T20:37:21.942Z,25.40
2023-10-30T20:42:25.008Z,27.80
2023-10-30T20:48:26.847Z,30.20
2023-10-30T20:54:48.664Z,27.70
2023-10-30T21:01:10.575Z,27.20
2023-10-30T21:06:32.746Z,22.20
2023-10-30T21:11:34.896Z,18.40
2023-10-30T21:16:37.650Z,15.10
2023-10-30T21:21:39.823Z,11.00
2023-10-30T21:26:41.901Z,8.90
2023-10-30T21:31:44.089Z,8.30
2023-10-30T21:36:46.840Z,8.40
2023-10-30T21:41:49.247Z,8.60
2023-10-30T21:46:51.557Z,8.60
2023-10-30T21:51:53.668Z,8.00
2023-10-30T21:56:55.744Z,7.00
2023-10-30T22:01:57.959Z,6.20
2023-10-30T22:07:03.876Z,5.80
2023-10-30T22:12:06.222Z,5.70
2023-10-30T22:17:08.510Z,6.10
2023-10-30T22:22:10.699Z,4.90
2023-10-30T22:27:12.713Z,6.20
2023-10-30T22:32:14.749Z,7.10
2023-10-30T22:37:17.561Z,7.70
2023-10-30T22:42:20.023Z,7.20
2023-10-30T22:48:21.899Z,6.90
2023-10-30T22:53:44.031Z,6.60
2023-10-30T22:59:45.815Z,6.50
2023-10-30T23:05:08.514Z,5.40
2023-10-30T23:10:10.753Z,4.50
2023-10-30T23:15:12.943Z,3.50
2023-10-30T23:21:14.737Z,3.10
2023-10-30T23:26:36.708Z,3.40
2023-10-30T23:31:39.173Z,3.20
2023-10-30T23:36:41.240Z,3.40
2023-10-30T23:41:43.677Z,2.80
2023-10-30T23:46:47.017Z,3.20
2023-10-30T23:51:49.235Z,3.20
2023-10-30T23:57:34.429Z,3.50
